sensor_id;sensor_type;location;lat;lon;timestamp;pressure;altitude;pressure_sealevel;temperature;humidity
65557;BME280;52200;53.490;14.376;2023-01-01T00:01:35;100716.03;;;14.11;77.59
65557;BME280;52200;53.490;14.376;2023-01-01T00:04:05;100708.03;;;14.18;76.79
65557;BME280;52200;53.490;14.376;2023-01-01T00:06:33;100709.09;;;14.13;77.56
65557;BME280;52200;53.490;14.376;2023-01-01T00:08:58;100714.53;;;14.26;76.33
65557;BME280;52200;53.490;14.376;2023-01-01T00:11:42;100719.75;;;14.23;75.96
65557;BME280;52200;53.490;14.376;2023-01-01T00:14:07;100719.75;;;14.23;75.73
65557;BME280;52200;53.490;14.376;2023-01-01T00:16:33;100717.22;;;14.23;75.11
65557;BME280;52200;53.490;14.376;2023-01-01T00:18:59;100716.31;;;14.24;75.67
65557;BME280;52200;53.490;14.376;2023-01-01T00:21:24;100730.00;;;14.23;75.22
65557;BME280;52200;53.490;14.376;2023-01-01T00:23:50;100726.53;;;14.24;74.83
65557;BME280;52200;53.490;14.376;2023-01-01T00:26:16;100722.50;;;14.18;74.95
65557;BME280;52200;53.490;14.376;2023-01-01T00:28:43;100729.63;;;14.11;75.18
65557;BME280;52200;53.490;14.376;2023-01-01T00:31:10;100735.59;;;14.10;74.59
65557;BME280;52200;53.490;14.376;2023-01-01T00:33:36;100759.38;;;14.12;74.49
65557;BME280;52200;53.490;14.376;2023-01-01T00:36:09;100757.66;;;14.33;74.72
65557;BME280;52200;53.490;14.376;2023-01-01T00:38:35;100750.06;;;14.32;73.95
65557;BME280;52200;53.490;14.376;2023-01-01T00:41:01;100757.97;;;14.26;74.30
65557;BME280;52200;53.490;14.376;2023-01-01T00:43:27;100749.66;;;14.21;74.45
65557;BME280;52200;53.490;14.376;2023-01-01T00:45:52;100735.09;;;14.23;74.03
65557;BME280;52200;53.490;14.376;2023-01-01T00:48:18;100738.06;;;14.13;74.72
65557;BME280;52200;53.490;14.376;2023-01-01T00:50:44;100739.91;;;14.10;74.54
65557;BME280;52200;53.490;14.376;2023-01-01T00:53:09;100740.78;;;14.09;74.14
65557;BME280;52200;53.490;14.376;2023-01-01T00:55:35;100738.94;;;14.12;73.49
65557;BME280;52200;53.490;14.376;2023-01-01T00:58:00;100738.31;;;14.07;73.46
65557;BME280;52200;53.490;14.376;2023-01-01T01:00:26;100764.84;;;14.03;74.56
65557;BME280;52200;53.490;14.376;2023-01-01T01:02:51;100761.41;;;14.04;74.20
65557;BME280;52200;53.490;14.376;2023-01-01T01:05:17;100759.38;;;14.12;73.70
65557;BME280;52200;53.490;14.376;2023-01-01T01:07:42;100764.84;;;14.03;73.65
65557;BME280;52200;53.490;14.376;2023-01-01T01:10:08;100762.19;;;14.06;73.58
65557;BME280;52200;53.490;14.376;2023-01-01T01:12:34;100772.91;;;14.14;73.23
65557;BME280;52200;53.490;14.376;2023-01-01T01:15:00;100756.13;;;14.09;73.01
65557;BME280;52200;53.490;14.376;2023-01-01T01:17:26;100749.78;;;13.97;73.74
65557;BME280;52200;53.490;14.376;2023-01-01T01:19:51;100755.94;;;14.13;73.56
65557;BME280;52200;53.490;14.376;2023-01-01T01:22:17;100762.44;;;14.00;73.86
65557;BME280;52200;53.490;14.376;2023-01-01T01:24:42;100756.94;;;13.89;73.75
65557;BME280;52200;53.490;14.376;2023-01-01T01:27:08;100748.81;;;13.99;73.39
65557;BME280;52200;53.490;14.376;2023-01-01T01:29:33;100748.63;;;14.04;72.92
65557;BME280;52200;53.490;14.376;2023-01-01T01:31:58;100749.09;;;14.14;73.30
65557;BME280;52200;53.490;14.376;2023-01-01T01:34:24;100750.94;;;14.10;72.43
65557;BME280;52200;53.490;14.376;2023-01-01T01:36:49;100765.63;;;14.05;73.12
65557;BME280;52200;53.490;14.376;2023-01-01T01:39:17;100774.50;;;13.96;72.24
65557;BME280;52200;53.490;14.376;2023-01-01T01:41:42;100782.47;;;14.09;72.09
65557;BME280;52200;53.490;14.376;2023-01-01T01:47:16;100780.53;;;14.16;71.71
65557;BME280;52200;53.490;14.376;2023-01-01T01:49:44;100783.63;;;14.02;73.05
65557;BME280;52200;53.490;14.376;2023-01-01T01:52:10;100778.09;;;14.13;71.79
65557;BME280;52200;53.490;14.376;2023-01-01T01:54:36;100775.22;;;14.00;72.17
65557;BME280;52200;53.490;14.376;2023-01-01T01:57:06;100777.25;;;14.12;72.19
65557;BME280;52200;53.490;14.376;2023-01-01T01:59:35;100770.34;;;14.14;71.43
65557;BME280;52200;53.490;14.376;2023-01-01T02:02:06;100773.16;;;14.08;71.84
65557;BME280;52200;53.490;14.376;2023-01-01T02:04:34;100786.84;;;14.07;71.38
65557;BME280;52200;53.490;14.376;2023-01-01T02:06:59;100784.03;;;14.13;71.25
65557;BME280;52200;53.490;14.376;2023-01-01T02:09:25;100780.19;;;14.03;71.54
65557;BME280;52200;53.490;14.376;2023-01-01T02:11:51;100780.50;;;13.95;71.54
65557;BME280;52200;53.490;14.376;2023-01-01T02:14:16;100785.28;;;14.03;71.58
65557;BME280;52200;53.490;14.376;2023-01-01T02:16:45;100787.19;;;13.98;71.53
65557;BME280;52200;53.490;14.376;2023-01-01T02:19:27;100781.28;;;13.97;71.51
65557;BME280;52200;53.490;14.376;2023-01-01T02:22:05;100791.09;;;14.07;70.87
65557;BME280;52200;53.490;14.376;2023-01-01T02:24:58;100781.78;;;14.06;70.78
65557;BME280;52200;53.490;14.376;2023-01-01T02:27:32;100781.84;;;14.04;71.18
65557;BME280;52200;53.490;14.376;2023-01-01T02:30:02;100778.72;;;13.97;71.55
65557;BME280;52200;53.490;14.376;2023-01-01T02:32:50;100778.50;;;14.02;70.82
65557;BME280;52200;53.490;14.376;2023-01-01T02:35:20;100786.06;;;14.05;71.15
65557;BME280;52200;53.490;14.376;2023-01-01T02:40:54;100791.94;;;14.07;70.69
65557;BME280;52200;53.490;14.376;2023-01-01T02:43:21;100783.97;;;14.15;70.25
65557;BME280;52200;53.490;14.376;2023-01-01T02:45:47;100794.72;;;14.23;70.47
65557;BME280;52200;53.490;14.376;2023-01-01T02:51:10;100798.34;;;14.17;70.77
65557;BME280;52200;53.490;14.376;2023-01-01T02:56:41;100798.34;;;14.17;71.41
65557;BME280;52200;53.490;14.376;2023-01-01T02:59:22;100787.94;;;14.22;70.16
65557;BME280;52200;53.490;14.376;2023-01-01T03:02:24;100793.47;;;14.11;71.11
65557;BME280;52200;53.490;14.376;2023-01-01T03:07:40;100787.78;;;14.25;69.77
65557;BME280;52200;53.490;14.376;2023-01-01T03:10:31;100791.13;;;14.27;70.13
65557;BME280;52200;53.490;14.376;2023-01-01T03:15:59;100772.53;;;14.24;69.78
65557;BME280;52200;53.490;14.376;2023-01-01T03:20:59;100762.06;;;14.30;69.63
65557;BME280;52200;53.490;14.376;2023-01-01T03:23:37;100758.63;;;14.31;69.63
65557;BME280;52200;53.490;14.376;2023-01-01T03:26:09;100771.06;;;14.39;69.00
65557;BME280;52200;53.490;14.376;2023-01-01T03:28:45;100764.22;;;14.39;69.00
65557;BME280;52200;53.490;14.376;2023-01-01T03:31:14;100756.69;;;14.36;69.32
65557;BME280;52200;53.490;14.376;2023-01-01T03:33:46;100772.91;;;14.35;69.38
65557;BME280;52200;53.490;14.376;2023-01-01T03:36:43;100776.06;;;14.21;69.30
65557;BME280;52200;53.490;14.376;2023-01-01T03:39:17;100780.47;;;14.38;69.43
65557;BME280;52200;53.490;14.376;2023-01-01T03:42:15;100783.91;;;14.37;68.35
65557;BME280;52200;53.490;14.376;2023-01-01T03:44:46;100788.44;;;14.30;68.65
65557;BME280;52200;53.490;14.376;2023-01-01T03:47:13;100799.63;;;14.28;69.07
65557;BME280;52200;53.490;14.376;2023-01-01T03:49:39;100793.09;;;14.41;68.57
65557;BME280;52200;53.490;14.376;2023-01-01T03:52:22;100802.94;;;14.30;68.46
65557;BME280;52200;53.490;14.376;2023-01-01T04:02:40;100802.88;;;14.31;68.03
65557;BME280;52200;53.490;14.376;2023-01-01T04:05:08;100803.19;;;14.24;68.75
65557;BME280;52200;53.490;14.376;2023-01-01T04:07:37;100798.78;;;14.27;68.33
65557;BME280;52200;53.490;14.376;2023-01-01T04:10:05;100807.91;;;14.33;67.83
65557;BME280;52200;53.490;14.376;2023-01-01T04:12:55;100811.69;;;14.45;68.33
65557;BME280;52200;53.490;14.376;2023-01-01T04:15:26;100815.84;;;14.47;67.77
65557;BME280;52200;53.490;14.376;2023-01-01T04:17:52;100823.31;;;14.31;68.03
65557;BME280;52200;53.490;14.376;2023-01-01T04:20:18;100813.69;;;14.38;67.85
65557;BME280;52200;53.490;14.376;2023-01-01T04:22:45;100817.25;;;14.34;67.61
65557;BME280;52200;53.490;14.376;2023-01-01T04:25:11;100818.56;;;14.44;67.47
65557;BME280;52200;53.490;14.376;2023-01-01T04:27:38;100796.94;;;14.31;68.03
65557;BME280;52200;53.490;14.376;2023-01-01T04:30:05;100816.38;;;14.35;68.13
65557;BME280;52200;53.490;14.376;2023-01-01T04:32:31;100807.28;;;14.28;67.84
65557;BME280;52200;53.490;14.376;2023-01-01T04:34:57;100807.66;;;14.39;67.39
65557;BME280;52200;53.490;14.376;2023-01-01T04:37:23;100825.38;;;14.44;67.44
65557;BME280;52200;53.490;14.376;2023-01-01T04:39:48;100822.13;;;14.40;68.01
65557;BME280;52200;53.490;14.376;2023-01-01T04:42:14;100833.19;;;14.41;67.59
65557;BME280;52200;53.490;14.376;2023-01-01T04:44:39;100839.03;;;14.43;67.04
65557;BME280;52200;53.490;14.376;2023-01-01T04:47:05;100843.34;;;14.42;67.18
65557;BME280;52200;53.490;14.376;2023-01-01T04:49:30;100855.06;;;14.48;67.14
65557;BME280;52200;53.490;14.376;2023-01-01T04:51:56;100858.78;;;14.39;67.42
65557;BME280;52200;53.490;14.376;2023-01-01T04:54:21;100844.28;;;14.40;67.64
65557;BME280;52200;53.490;14.376;2023-01-01T04:56:47;100849.97;;;14.46;66.96
65557;BME280;52200;53.490;14.376;2023-01-01T04:59:12;100856.91;;;14.44;67.21
65557;BME280;52200;53.490;14.376;2023-01-01T05:01:37;100858.28;;;14.51;66.81
65557;BME280;52200;53.490;14.376;2023-01-01T05:04:03;100856.19;;;14.41;66.82
65557;BME280;52200;53.490;14.376;2023-01-01T05:06:28;100846.81;;;14.19;67.92
65557;BME280;52200;53.490;14.376;2023-01-01T05:08:55;100854.63;;;14.37;67.52
65557;BME280;52200;53.490;14.376;2023-01-01T05:11:28;100859.56;;;14.41;67.16
65557;BME280;52200;53.490;14.376;2023-01-01T05:13:56;100857.25;;;14.35;67.08
65557;BME280;52200;53.490;14.376;2023-01-01T05:16:24;100852.31;;;14.30;67.16
65557;BME280;52200;53.490;14.376;2023-01-01T05:18:50;100855.72;;;14.31;67.21
65557;BME280;52200;53.490;14.376;2023-01-01T05:21:18;100848.69;;;14.36;67.13
65557;BME280;52200;53.490;14.376;2023-01-01T05:23:44;100853.88;;;14.34;67.26
65557;BME280;52200;53.490;14.376;2023-01-01T05:26:18;100848.56;;;14.39;66.88
65557;BME280;52200;53.490;14.376;2023-01-01T05:28:44;100849.88;;;14.49;67.47
65557;BME280;52200;53.490;14.376;2023-01-01T05:31:15;100849.97;;;14.46;66.82
65557;BME280;52200;53.490;14.376;2023-01-01T05:33:41;100852.97;;;14.56;66.76
65557;BME280;52200;53.490;14.376;2023-01-01T05:36:09;100859.19;;;14.50;65.99
65557;BME280;52200;53.490;14.376;2023-01-01T05:38:35;100863.66;;;14.45;66.91
65557;BME280;52200;53.490;14.376;2023-01-01T05:41:09;100858.84;;;14.38;66.75
65557;BME280;52200;53.490;14.376;2023-01-01T05:43:35;100871.69;;;14.36;66.58
65557;BME280;52200;53.490;14.376;2023-01-01T05:46:10;100867.38;;;14.38;66.78
65557;BME280;52200;53.490;14.376;2023-01-01T05:48:35;100872.34;;;14.41;66.45
65557;BME280;52200;53.490;14.376;2023-01-01T05:51:07;100864.03;;;14.36;66.82
65557;BME280;52200;53.490;14.376;2023-01-01T05:53:33;100866.59;;;14.36;66.61
65557;BME280;52200;53.490;14.376;2023-01-01T05:55:59;100864.75;;;14.40;66.86
65557;BME280;52200;53.490;14.376;2023-01-01T05:58:25;100871.56;;;14.39;66.83
65557;BME280;52200;53.490;14.376;2023-01-01T06:00:51;100866.06;;;14.28;67.02
65557;BME280;52200;53.490;14.376;2023-01-01T06:03:17;100873.94;;;14.23;66.95
65557;BME280;52200;53.490;14.376;2023-01-01T06:05:42;100867.25;;;14.19;67.40
65557;BME280;52200;53.490;14.376;2023-01-01T06:08:08;100878.44;;;14.16;67.34
65557;BME280;52200;53.490;14.376;2023-01-01T06:10:33;100871.66;;;14.15;67.50
65557;BME280;52200;53.490;14.376;2023-01-01T06:12:59;100865.41;;;14.23;67.36
65557;BME280;52200;53.490;14.376;2023-01-01T06:15:25;100880.63;;;14.26;67.25
65557;BME280;52200;53.490;14.376;2023-01-01T06:17:51;100873.94;;;14.23;67.63
65557;BME280;52200;53.490;14.376;2023-01-01T06:20:16;100877.63;;;14.16;67.92
65557;BME280;52200;53.490;14.376;2023-01-01T06:22:42;100880.19;;;14.37;66.80
65557;BME280;52200;53.490;14.376;2023-01-01T06:25:08;100889.25;;;14.01;67.93
65557;BME280;52200;53.490;14.376;2023-01-01T06:27:35;100888.78;;;14.13;67.90
65557;BME280;52200;53.490;14.376;2023-01-01T06:30:04;100892.22;;;14.12;67.47
65557;BME280;52200;53.490;14.376;2023-01-01T06:32:30;100891.09;;;14.19;67.03
65557;BME280;52200;53.490;14.376;2023-01-01T06:34:56;100888.78;;;14.13;67.86
65557;BME280;52200;53.490;14.376;2023-01-01T06:37:21;100889.19;;;14.25;67.24
65557;BME280;52200;53.490;14.376;2023-01-01T06:39:46;100887.47;;;14.25;67.09
65557;BME280;52200;53.490;14.376;2023-01-01T06:42:12;100894.78;;;14.12;67.30
65557;BME280;52200;53.490;14.376;2023-01-01T06:44:37;100897.44;;;14.09;67.77
65557;BME280;52200;53.490;14.376;2023-01-01T06:47:03;100889.97;;;13.82;68.23
65557;BME280;52200;53.490;14.376;2023-01-01T06:49:28;100896.19;;;13.75;68.49
65557;BME280;52200;53.490;14.376;2023-01-01T06:51:54;100899.91;;;13.66;68.53
65557;BME280;52200;53.490;14.376;2023-01-01T06:54:19;100901.28;;;13.75;68.53
65557;BME280;52200;53.490;14.376;2023-01-01T06:56:45;100900.41;;;13.76;68.19
65557;BME280;52200;53.490;14.376;2023-01-01T06:59:10;100898.91;;;13.70;68.68
65557;BME280;52200;53.490;14.376;2023-01-01T07:01:37;100911.66;;;13.70;67.19
65557;BME280;52200;53.490;14.376;2023-01-01T07:04:10;100913.28;;;13.73;67.66
65557;BME280;52200;53.490;14.376;2023-01-01T07:06:36;100912.94;;;13.82;67.67
65557;BME280;52200;53.490;14.376;2023-01-01T07:09:02;100910.94;;;13.67;67.43
65557;BME280;52200;53.490;14.376;2023-01-01T07:11:27;100923.16;;;13.82;67.39
65557;BME280;52200;53.490;14.376;2023-01-01T07:13:53;100942.59;;;13.86;66.64
65557;BME280;52200;53.490;14.376;2023-01-01T07:16:19;100939.69;;;13.72;67.35
65557;BME280;52200;53.490;14.376;2023-01-01T07:18:44;100943.63;;;13.81;67.08
65557;BME280;52200;53.490;14.376;2023-01-01T07:23:54;100952.16;;;13.58;67.33
65557;BME280;52200;53.490;14.376;2023-01-01T07:26:23;100942.53;;;13.64;67.06
65557;BME280;52200;53.490;14.376;2023-01-01T07:28:50;100960.13;;;13.72;66.65
65557;BME280;52200;53.490;14.376;2023-01-01T07:31:15;100958.66;;;13.65;67.12
65557;BME280;52200;53.490;14.376;2023-01-01T07:33:41;100958.84;;;13.60;67.80
65557;BME280;52200;53.490;14.376;2023-01-01T07:36:07;100958.56;;;13.68;67.54
65557;BME280;52200;53.490;14.376;2023-01-01T07:38:32;100961.72;;;13.75;66.82
65557;BME280;52200;53.490;14.376;2023-01-01T07:40:58;100958.78;;;13.62;66.90
65557;BME280;52200;53.490;14.376;2023-01-01T07:43:23;100958.13;;;13.80;66.51
65557;BME280;52200;53.490;14.376;2023-01-01T07:45:48;100968.13;;;13.86;65.70
65557;BME280;52200;53.490;14.376;2023-01-01T07:48:14;100973.09;;;13.90;66.20
65557;BME280;52200;53.490;14.376;2023-01-01T07:50:41;100980.09;;;13.84;66.04
65557;BME280;52200;53.490;14.376;2023-01-01T07:53:07;100981.47;;;13.93;65.80
65557;BME280;52200;53.490;14.376;2023-01-01T07:55:33;100988.38;;;13.91;65.56
65557;BME280;52200;53.490;14.376;2023-01-01T07:57:58;100993.78;;;14.07;64.97
65557;BME280;52200;53.490;14.376;2023-01-01T08:00:24;100997.09;;;14.09;64.28
65557;BME280;52200;53.490;14.376;2023-01-01T08:02:50;100992.41;;;14.21;64.62
65557;BME280;52200;53.490;14.376;2023-01-01T08:05:16;100997.41;;;14.24;64.25
65557;BME280;52200;53.490;14.376;2023-01-01T08:07:48;100996.81;;;14.17;63.60
65557;BME280;52200;53.490;14.376;2023-01-01T08:10:15;101009.38;;;14.23;64.03
65557;BME280;52200;53.490;14.376;2023-01-01T08:12:41;101015.53;;;14.17;63.85
65557;BME280;52200;53.490;14.376;2023-01-01T08:15:07;101019.75;;;14.18;64.05
65557;BME280;52200;53.490;14.376;2023-01-01T08:17:33;101029.56;;;14.06;64.68
65557;BME280;52200;53.490;14.376;2023-01-01T08:19:59;101029.84;;;14.22;64.01
65557;BME280;52200;53.490;14.376;2023-01-01T08:22:24;101027.34;;;14.20;63.77
65557;BME280;52200;53.490;14.376;2023-01-01T08:24:50;101028.63;;;14.08;64.25
65557;BME280;52200;53.490;14.376;2023-01-01T08:27:16;101033.78;;;14.07;64.18
65557;BME280;52200;53.490;14.376;2023-01-01T08:29:43;101047.88;;;13.95;64.97
65557;BME280;52200;53.490;14.376;2023-01-01T08:32:09;101042.56;;;13.99;64.80
65557;BME280;52200;53.490;14.376;2023-01-01T08:34:34;101042.47;;;14.02;64.34
65557;BME280;52200;53.490;14.376;2023-01-01T08:37:00;101054.06;;;14.11;64.85
65557;BME280;52200;53.490;14.376;2023-01-01T08:39:25;101040.28;;;14.15;65.00
65557;BME280;52200;53.490;14.376;2023-01-01T08:41:50;101042.44;;;14.26;64.65
65557;BME280;52200;53.490;14.376;2023-01-01T08:44:16;101029.75;;;14.25;65.18
65557;BME280;52200;53.490;14.376;2023-01-01T08:46:41;101033.38;;;14.41;64.56
65557;BME280;52200;53.490;14.376;2023-01-01T08:49:07;101032.97;;;14.30;63.95
65557;BME280;52200;53.490;14.376;2023-01-01T08:51:32;101039.28;;;14.43;64.09
65557;BME280;52200;53.490;14.376;2023-01-01T08:53:58;101030.75;;;14.43;63.80
65557;BME280;52200;53.490;14.376;2023-01-01T08:56:23;101051.59;;;14.56;64.02
65557;BME280;52200;53.490;14.376;2023-01-01T08:58:48;101051.16;;;14.44;64.29
65557;BME280;52200;53.490;14.376;2023-01-01T09:01:14;101040.81;;;14.47;64.15
65557;BME280;52200;53.490;14.376;2023-01-01T09:03:39;101039.03;;;14.49;64.21
65557;BME280;52200;53.490;14.376;2023-01-01T09:06:05;101054.78;;;14.61;63.56
65557;BME280;52200;53.490;14.376;2023-01-01T09:08:30;101050.56;;;14.60;63.05
65557;BME280;52200;53.490;14.376;2023-01-01T09:10:59;101058.41;;;14.79;63.54
65557;BME280;52200;53.490;14.376;2023-01-01T09:13:25;101068.41;;;14.61;63.69
65557;BME280;52200;53.490;14.376;2023-01-01T09:15:50;101077.81;;;14.61;63.64
65557;BME280;52200;53.490;14.376;2023-01-01T09:18:16;101085.13;;;14.48;64.21
65557;BME280;52200;53.490;14.376;2023-01-01T09:20:42;101090.09;;;14.51;63.67
65557;BME280;52200;53.490;14.376;2023-01-01T09:23:09;101092.88;;;14.45;63.33
65557;BME280;52200;53.490;14.376;2023-01-01T09:25:35;101083.72;;;14.39;64.21
65557;BME280;52200;53.490;14.376;2023-01-01T09:28:05;101091.91;;;14.25;64.88
65557;BME280;52200;53.490;14.376;2023-01-01T09:30:31;101097.13;;;14.22;65.32
65557;BME280;52200;53.490;14.376;2023-01-01T09:32:57;101083.84;;;14.36;64.39
65557;BME280;52200;53.490;14.376;2023-01-01T09:35:24;101092.53;;;14.32;64.74
65557;BME280;52200;53.490;14.376;2023-01-01T09:37:50;101097.94;;;14.23;65.03
65557;BME280;52200;53.490;14.376;2023-01-01T09:43:52;101085.28;;;14.43;64.71
65557;BME280;52200;53.490;14.376;2023-01-01T09:46:13;101095.13;;;14.30;64.24
65557;BME280;52200;53.490;14.376;2023-01-01T09:48:48;101102.41;;;14.41;64.09
65557;BME280;52200;53.490;14.376;2023-01-01T09:51:17;101084.22;;;14.49;64.12
65557;BME280;52200;53.490;14.376;2023-01-01T09:53:50;101104.19;;;14.61;63.69
65557;BME280;52200;53.490;14.376;2023-01-01T09:56:27;101098.97;;;14.64;63.91
65557;BME280;52200;53.490;14.376;2023-01-01T09:58:52;101098.78;;;14.71;63.91
65557;BME280;52200;53.490;14.376;2023-01-01T10:01:48;101106.81;;;14.60;64.16
65557;BME280;52200;53.490;14.376;2023-01-01T10:04:40;101105.69;;;14.69;64.16
65557;BME280;52200;53.490;14.376;2023-01-01T10:10:03;101115.34;;;14.60;64.19
65557;BME280;52200;53.490;14.376;2023-01-01T10:17:50;101105.84;;;14.40;64.66
65557;BME280;52200;53.490;14.376;2023-01-01T10:20:36;101111.38;;;14.28;65.17
65557;BME280;52200;53.490;14.376;2023-01-01T10:23:18;101121.75;;;14.25;64.85
65557;BME280;52200;53.490;14.376;2023-01-01T10:25:45;101142.19;;;14.25;64.86
65557;BME280;52200;53.490;14.376;2023-01-01T10:28:25;101142.94;;;14.27;65.19
65557;BME280;52200;53.490;14.376;2023-01-01T10:31:13;101118.69;;;14.39;64.57
65557;BME280;52200;53.490;14.376;2023-01-01T10:33:39;101126.41;;;14.37;65.72
65557;BME280;52200;53.490;14.376;2023-01-01T10:36:06;101122.69;;;14.70;65.15
65557;BME280;52200;53.490;14.376;2023-01-01T10:38:34;101134.63;;;14.93;64.15
65557;BME280;52200;53.490;14.376;2023-01-01T10:41:08;101111.69;;;14.90;63.95
65557;BME280;52200;53.490;14.376;2023-01-01T10:43:35;101142.22;;;14.94;64.00
65557;BME280;52200;53.490;14.376;2023-01-01T10:46:02;101148.41;;;15.11;63.85
65557;BME280;52200;53.490;14.376;2023-01-01T10:48:29;101146.88;;;15.07;63.22
65557;BME280;52200;53.490;14.376;2023-01-01T10:56:12;101135.25;;;14.76;64.56
65557;BME280;52200;53.490;14.376;2023-01-01T10:58:46;101138.66;;;14.76;64.53
65557;BME280;52200;53.490;14.376;2023-01-01T11:06:26;101138.88;;;14.70;63.87
65557;BME280;52200;53.490;14.376;2023-01-01T11:08:57;101155.31;;;14.87;64.76
65557;BME280;52200;53.490;14.376;2023-01-01T11:11:39;101165.53;;;14.87;64.26
65557;BME280;52200;53.490;14.376;2023-01-01T11:14:18;101169.16;;;14.81;64.61
65557;BME280;52200;53.490;14.376;2023-01-01T11:16:45;101174.47;;;14.76;64.36
65557;BME280;52200;53.490;14.376;2023-01-01T11:19:22;101165.78;;;14.80;64.40
65557;BME280;52200;53.490;14.376;2023-01-01T11:21:48;101167.13;;;14.67;64.61
65557;BME280;52200;53.490;14.376;2023-01-01T11:24:20;101171.06;;;14.76;64.04
65557;BME280;52200;53.490;14.376;2023-01-01T11:26:45;101185.06;;;14.65;64.48
65557;BME280;52200;53.490;14.376;2023-01-01T11:31:40;101188.03;;;14.53;64.71
65557;BME280;52200;53.490;14.376;2023-01-01T11:34:33;101190.06;;;14.69;64.98
65557;BME280;52200;53.490;14.376;2023-01-01T11:37:16;101196.25;;;14.61;64.91
65557;BME280;52200;53.490;14.376;2023-01-01T11:39:46;101196.56;;;14.77;65.26
65557;BME280;52200;53.490;14.376;2023-01-01T11:42:20;101196.56;;;14.77;64.77
65557;BME280;52200;53.490;14.376;2023-01-01T11:45:08;101213.28;;;14.62;64.84
65557;BME280;52200;53.490;14.376;2023-01-01T11:47:40;101221.31;;;14.77;64.82
65557;BME280;52200;53.490;14.376;2023-01-01T11:52:40;101232.50;;;14.74;64.90
65557;BME280;52200;53.490;14.376;2023-01-01T11:58:17;101231.78;;;14.71;64.74
65557;BME280;52200;53.490;14.376;2023-01-01T12:00:46;101227.78;;;14.62;65.03
65557;BME280;52200;53.490;14.376;2023-01-01T12:03:32;101217.38;;;14.68;65.48
65557;BME280;52200;53.490;14.376;2023-01-01T12:06:07;101203.72;;;14.69;65.06
65557;BME280;52200;53.490;14.376;2023-01-01T12:08:41;101208.81;;;14.69;65.43
65557;BME280;52200;53.490;14.376;2023-01-01T12:13:58;101210.19;;;14.52;65.30
65557;BME280;52200;53.490;14.376;2023-01-01T12:16:44;101212.34;;;14.65;65.35
65557;BME280;52200;53.490;14.376;2023-01-01T12:19:29;101213.56;;;14.55;65.80
65557;BME280;52200;53.490;14.376;2023-01-01T12:21:59;101212.00;;;14.50;65.92
65557;BME280;52200;53.490;14.376;2023-01-01T12:24:32;101216.09;;;14.55;66.09
65557;BME280;52200;53.490;14.376;2023-01-01T12:30:00;101228.75;;;14.34;66.39
65557;BME280;52200;53.490;14.376;2023-01-01T12:43:41;101246.69;;;14.32;66.82
65557;BME280;52200;53.490;14.376;2023-01-01T12:57:35;101250.88;;;14.10;67.56
65557;BME280;52200;53.490;14.376;2023-01-01T13:00:12;101249.94;;;14.12;67.77
65557;BME280;52200;53.490;14.376;2023-01-01T13:02:46;101262.78;;;14.09;67.72
65557;BME280;52200;53.490;14.376;2023-01-01T13:05:18;101269.56;;;14.10;67.30
65557;BME280;52200;53.490;14.376;2023-01-01T13:07:47;101281.47;;;14.11;67.53
65557;BME280;52200;53.490;14.376;2023-01-01T13:10:23;101270.47;;;14.09;67.43
65557;BME280;52200;53.490;14.376;2023-01-01T13:12:51;101275.63;;;14.08;68.37
65557;BME280;52200;53.490;14.376;2023-01-01T13:20:45;101291.09;;;14.03;67.38
65557;BME280;52200;53.490;14.376;2023-01-01T13:45:33;101354.94;;;13.76;68.26
65557;BME280;52200;53.490;14.376;2023-01-01T14:10:22;101398.72;;;13.62;69.23
65557;BME280;52200;53.490;14.376;2023-01-01T14:12:48;101399.84;;;13.53;69.35
65557;BME280;52200;53.490;14.376;2023-01-01T14:15:26;101401.91;;;13.41;69.49
65557;BME280;52200;53.490;14.376;2023-01-01T14:17:58;101409.19;;;13.21;70.77
65557;BME280;52200;53.490;14.376;2023-01-01T14:20:39;101406.28;;;13.35;70.50
65557;BME280;52200;53.490;14.376;2023-01-01T14:23:11;101410.69;;;13.29;70.33
65557;BME280;52200;53.490;14.376;2023-01-01T14:25:40;101401.34;;;13.29;70.70
65557;BME280;52200;53.490;14.376;2023-01-01T14:28:15;101404.84;;;13.25;70.66
65557;BME280;52200;53.490;14.376;2023-01-01T14:30:43;101413.63;;;13.15;70.50
65557;BME280;52200;53.490;14.376;2023-01-01T14:33:21;101412.97;;;13.08;71.69
65557;BME280;52200;53.490;14.376;2023-01-01T14:35:54;101424.81;;;13.09;71.69
65557;BME280;52200;53.490;14.376;2023-01-01T14:41:17;101437.53;;;13.11;71.44
65557;BME280;52200;53.490;14.376;2023-01-01T14:43:45;101448.81;;;13.02;71.90
65557;BME280;52200;53.490;14.376;2023-01-01T14:46:17;101442.19;;;12.95;72.33
65557;BME280;52200;53.490;14.376;2023-01-01T14:48:45;101441.50;;;12.88;72.79
65557;BME280;52200;53.490;14.376;2023-01-01T14:51:19;101448.72;;;12.70;72.96
65557;BME280;52200;53.490;14.376;2023-01-01T14:53:47;101459.97;;;12.62;73.31
65557;BME280;52200;53.490;14.376;2023-01-01T14:56:30;101454.81;;;12.65;73.41
65557;BME280;52200;53.490;14.376;2023-01-01T14:59:25;101449.19;;;12.50;74.31
65557;BME280;52200;53.490;14.376;2023-01-01T15:04:38;101453.50;;;12.48;73.80
65557;BME280;52200;53.490;14.376;2023-01-01T15:07:03;101446.03;;;12.40;74.48
65557;BME280;52200;53.490;14.376;2023-01-01T15:09:30;101445.34;;;12.34;74.35
65557;BME280;52200;53.490;14.376;2023-01-01T15:11:58;101464.88;;;12.33;73.31
65557;BME280;52200;53.490;14.376;2023-01-01T15:17:20;101463.88;;;12.40;73.42
65557;BME280;52200;53.490;14.376;2023-01-01T15:20:00;101473.28;;;12.37;73.71